createdAt,value
2019-01-26T00:00:22.715Z,0
2019-01-26T00:01:22.688Z,0
2019-01-26T00:02:22.680Z,0
2019-01-26T00:03:22.660Z,0
2019-01-26T00:04:22.635Z,0
2019-01-26T00:05:22.616Z,0
2019-01-26T00:06:22.606Z,0
2019-01-26T00:07:22.585Z,0
2019-01-26T00:08:22.562Z,0
2019-01-26T00:09:22.549Z,0
2019-01-26T00:10:22.544Z,0
2019-01-26T00:11:22.519Z,0
2019-01-26T00:12:22.258Z,0
2019-01-26T00:13:22.479Z,0
2019-01-26T00:14:22.465Z,0
2019-01-26T00:15:22.455Z,0
2019-01-26T00:16:28.205Z,0
2019-01-26T00:17:22.410Z,0
2019-01-26T00:18:22.389Z,0
2019-01-26T00:19:22.378Z,0
2019-01-26T00:20:22.366Z,0
2019-01-26T00:21:22.338Z,0
2019-01-26T00:22:22.336Z,0
2019-01-26T00:23:22.306Z,0
2019-01-26T00:24:22.290Z,0
2019-01-26T00:25:22.270Z,0
2019-01-26T00:26:22.252Z,0
2019-01-26T00:27:22.236Z,0
2019-01-26T00:28:22.226Z,0
2019-01-26T00:29:22.202Z,0
2019-01-26T00:30:22.186Z,0
2019-01-26T00:31:22.165Z,0
2019-01-26T00:32:22.162Z,0
2019-01-26T00:33:22.134Z,0
2019-01-26T00:34:22.132Z,0
2019-01-26T00:35:22.100Z,0
2019-01-26T00:36:22.083Z,0
2019-01-26T00:37:22.068Z,0
2019-01-26T00:38:22.052Z,0
2019-01-26T00:39:22.027Z,0
2019-01-26T00:40:22.029Z,0
2019-01-26T00:41:21.993Z,0
2019-01-26T00:42:21.981Z,0
2019-01-26T00:43:21.963Z,0
2019-01-26T00:44:21.938Z,0
2019-01-26T00:45:21.925Z,0
2019-01-26T00:46:28.208Z,0
2019-01-26T00:47:21.891Z,0
2019-01-26T00:48:21.873Z,0
2019-01-26T00:49:21.856Z,0
2019-01-26T00:50:21.847Z,0
2019-01-26T00:51:26.583Z,0
2019-01-26T00:52:21.804Z,0
2019-01-26T00:53:21.787Z,0
2019-01-26T00:54:21.769Z,0
2019-01-26T00:55:21.756Z,0
2019-01-26T00:56:21.740Z,0
2019-01-26T00:57:21.721Z,0
2019-01-26T00:58:26.161Z,0
2019-01-26T00:59:21.682Z,0
2019-01-26T01:00:21.666Z,0
2019-01-26T01:01:21.648Z,0
2019-01-26T01:02:21.631Z,0
2019-01-26T01:03:21.617Z,0
2019-01-26T01:04:21.606Z,0
2019-01-26T01:05:21.590Z,0
2019-01-26T01:06:25.851Z,0
2019-01-26T01:07:21.547Z,0
2019-01-26T01:08:21.523Z,0
2019-01-26T01:09:21.509Z,0
2019-01-26T01:10:21.504Z,0
2019-01-26T01:11:21.499Z,0
2019-01-26T01:12:21.465Z,0
2019-01-26T01:13:21.447Z,0
2019-01-26T01:14:21.422Z,0
2019-01-26T01:15:21.413Z,0
2019-01-26T01:16:21.396Z,0
2019-01-26T01:17:21.370Z,0
2019-01-26T01:18:21.357Z,0
2019-01-26T01:19:21.343Z,0
2019-01-26T01:20:21.326Z,0
2019-01-26T01:21:21.302Z,0
2019-01-26T01:22:21.314Z,0
2019-01-26T01:23:21.290Z,0
2019-01-26T01:24:21.259Z,0
2019-01-26T01:25:21.250Z,0
2019-01-26T01:26:21.219Z,0
2019-01-26T01:27:21.207Z,0
2019-01-26T01:28:21.183Z,0
2019-01-26T01:29:21.165Z,0
2019-01-26T01:30:21.148Z,0
2019-01-26T01:31:21.129Z,0
2019-01-26T01:32:21.117Z,0
2019-01-26T01:33:22.620Z,0
2019-01-26T01:34:21.090Z,0
2019-01-26T01:35:21.066Z,0
2019-01-26T01:36:21.044Z,0
2019-01-26T01:37:21.024Z,0
2019-01-26T01:38:21.005Z,0
2019-01-26T01:39:21.092Z,0
2019-01-26T01:40:20.972Z,0
2019-01-26T01:41:20.968Z,0
2019-01-26T01:42:20.947Z,0
2019-01-26T01:43:20.927Z,0
2019-01-26T01:44:20.907Z,0
2019-01-26T01:45:20.889Z,0
2019-01-26T01:46:20.913Z,0
2019-01-26T01:47:20.852Z,0
2019-01-26T01:48:20.833Z,0
2019-01-26T01:49:20.826Z,0
2019-01-26T01:50:20.560Z,0
2019-01-26T01:51:20.782Z,0
2019-01-26T01:52:20.808Z,0
2019-01-26T01:53:20.748Z,0
2019-01-26T01:54:20.734Z,0
2019-01-26T01:55:20.719Z,0
2019-01-26T01:56:20.707Z,0
2019-01-26T01:57:20.685Z,0
2019-01-26T01:58:20.662Z,0
2019-01-26T01:59:20.644Z,0
2019-01-26T02:00:20.632Z,0
2019-01-26T02:01:20.608Z,0
2019-01-26T02:02:20.590Z,0
2019-01-26T02:03:20.573Z,0
2019-01-26T02:04:20.558Z,0
2019-01-26T02:05:20.547Z,0
2019-01-26T02:06:20.522Z,0
2019-01-26T02:07:20.509Z,0
2019-01-26T02:08:20.491Z,0
2019-01-26T02:09:20.469Z,0
2019-01-26T02:10:20.458Z,0
2019-01-26T02:11:20.436Z,0
2019-01-26T02:12:20.423Z,0
2019-01-26T02:13:20.398Z,0
2019-01-26T02:14:20.392Z,0
2019-01-26T02:15:20.363Z,0
2019-01-26T02:16:20.352Z,0
2019-01-26T02:17:20.331Z,0
2019-01-26T02:18:20.314Z,0
2019-01-26T02:19:20.295Z,0
2019-01-26T02:20:20.285Z,0
2019-01-26T02:21:20.258Z,0
2019-01-26T02:22:20.260Z,0
2019-01-26T02:23:20.240Z,0
2019-01-26T02:24:20.203Z,0
2019-01-26T02:25:20.227Z,0
2019-01-26T02:26:20.180Z,0
2019-01-26T02:27:20.160Z,0
2019-01-26T02:28:20.140Z,0
2019-01-26T02:29:19.880Z,0
2019-01-26T02:30:20.159Z,0
2019-01-26T02:31:20.114Z,0
2019-01-26T02:32:20.072Z,0
2019-01-26T02:33:20.058Z,0
2019-01-26T02:34:20.039Z,0
2019-01-26T02:35:20.020Z,0
2019-01-26T02:36:20.013Z,0
2019-01-26T02:37:19.992Z,0
2019-01-26T02:38:20.018Z,0
2019-01-26T02:39:19.966Z,0
2019-01-26T02:40:19.932Z,0
2019-01-26T02:41:19.928Z,0
2019-01-26T02:42:19.911Z,0
2019-01-26T02:43:19.884Z,0
2019-01-26T02:44:19.865Z,0
2019-01-26T02:45:19.866Z,0
2019-01-26T02:46:19.839Z,0
2019-01-26T02:47:19.811Z,0
2019-01-26T02:48:19.807Z,0
2019-01-26T02:49:19.779Z,0
2019-01-26T02:50:19.782Z,0
2019-01-26T02:51:19.758Z,0
2019-01-26T02:52:19.729Z,0
2019-01-26T02:53:19.707Z,0
2019-01-26T02:54:19.698Z,0
2019-01-26T02:55:19.700Z,0
2019-01-26T02:56:19.667Z,0
2019-01-26T02:57:19.646Z,0
2019-01-26T02:58:19.625Z,0
2019-01-26T02:59:19.610Z,0
2019-01-26T03:00:19.598Z,0
2019-01-26T03:01:19.592Z,0
2019-01-26T03:02:19.574Z,0
2019-01-26T03:03:19.540Z,0
2019-01-26T03:04:19.521Z,0
2019-01-26T03:05:19.521Z,0
2019-01-26T03:06:19.487Z,0
2019-01-26T03:07:19.468Z,0
2019-01-26T03:08:19.458Z,0
2019-01-26T03:09:19.437Z,0
2019-01-26T03:10:19.422Z,0
2019-01-26T03:11:19.427Z,0
2019-01-26T03:12:19.387Z,0
2019-01-26T03:13:19.376Z,0
2019-01-26T03:14:19.353Z,0
2019-01-26T03:15:19.342Z,0
2019-01-26T03:16:19.385Z,0
2019-01-26T03:17:19.311Z,0
2019-01-26T03:18:19.281Z,0
2019-01-26T03:19:19.266Z,0
2019-01-26T03:20:19.253Z,0
2019-01-26T03:21:18.986Z,0
2019-01-26T03:22:19.214Z,0
2019-01-26T03:23:19.199Z,0
2019-01-26T03:24:19.181Z,0
2019-01-26T03:25:19.174Z,0
2019-01-26T03:26:19.142Z,0
2019-01-26T03:27:19.136Z,0
2019-01-26T03:28:19.108Z,0
2019-01-26T03:29:19.085Z,0
2019-01-26T03:30:19.081Z,0
2019-01-26T03:31:19.089Z,0
2019-01-26T03:32:19.116Z,0
2019-01-26T03:33:19.092Z,0
2019-01-26T03:34:19.006Z,0
2019-01-26T03:35:19.000Z,0
2019-01-26T03:36:18.972Z,0
2019-01-26T03:37:18.953Z,0
2019-01-26T03:38:18.970Z,0
2019-01-26T03:39:18.952Z,0
2019-01-26T03:40:18.895Z,0
2019-01-26T03:41:18.894Z,0
2019-01-26T03:42:18.868Z,0
2019-01-26T03:43:18.851Z,0
2019-01-26T03:44:18.836Z,0
2019-01-26T03:45:18.825Z,0
2019-01-26T03:46:18.796Z,0
2019-01-26T03:47:23.131Z,0
2019-01-26T03:48:18.759Z,0
2019-01-26T03:49:18.750Z,0
2019-01-26T03:50:18.738Z,0
2019-01-26T03:51:18.716Z,0
2019-01-26T03:52:18.691Z,0
2019-01-26T03:53:18.678Z,0
2019-01-26T03:54:18.669Z,0
2019-01-26T03:55:18.647Z,0
2019-01-26T03:56:18.628Z,0
2019-01-26T03:57:20.201Z,0
2019-01-26T03:58:18.603Z,0
2019-01-26T03:59:18.578Z,0
2019-01-26T04:00:18.559Z,0
2019-01-26T04:01:18.537Z,0
2019-01-26T04:02:18.280Z,0
2019-01-26T04:03:18.524Z,0
2019-01-26T04:04:18.917Z,0
2019-01-26T04:05:18.483Z,0
2019-01-26T04:06:18.457Z,0
2019-01-26T04:07:18.436Z,0
2019-01-26T04:08:18.417Z,0
2019-01-26T04:09:18.397Z,0
2019-01-26T04:10:18.407Z,0
2019-01-26T04:11:18.406Z,0
2019-01-26T04:12:18.352Z,0
2019-01-26T04:13:18.336Z,0
2019-01-26T04:14:18.925Z,0
2019-01-26T04:15:18.310Z,0
2019-01-26T04:16:18.303Z,0
2019-01-26T04:17:24.289Z,0
2019-01-26T04:18:18.246Z,0
2019-01-26T04:19:18.231Z,0
2019-01-26T04:20:18.218Z,0
2019-01-26T04:21:18.197Z,0
2019-01-26T04:22:18.179Z,0
2019-01-26T04:23:18.166Z,0
2019-01-26T04:24:18.158Z,0
2019-01-26T04:25:18.129Z,0
2019-01-26T04:26:18.106Z,0
2019-01-26T04:27:18.082Z,0
2019-01-26T04:28:18.066Z,0
2019-01-26T04:29:18.602Z,0
2019-01-26T04:30:18.037Z,0
2019-01-26T04:31:18.024Z,0
2019-01-26T04:32:18.004Z,0
2019-01-26T04:33:17.993Z,0
2019-01-26T04:34:17.972Z,0
2019-01-26T04:35:17.967Z,0
2019-01-26T04:36:17.936Z,0
2019-01-26T04:37:17.924Z,0
2019-01-26T04:38:17.928Z,0
2019-01-26T04:39:17.893Z,0
2019-01-26T04:40:17.882Z,0
2019-01-26T04:41:17.853Z,0
2019-01-26T04:42:17.856Z,0
2019-01-26T04:43:17.819Z,0
2019-01-26T04:44:17.814Z,0
2019-01-26T04:45:17.794Z,0
2019-01-26T04:46:17.771Z,0
2019-01-26T04:47:17.752Z,0
2019-01-26T04:48:17.740Z,0
2019-01-26T04:49:17.722Z,0
2019-01-26T04:50:17.751Z,0
2019-01-26T04:51:17.691Z,0
2019-01-26T04:52:17.681Z,0
2019-01-26T04:53:17.686Z,0
2019-01-26T04:54:17.639Z,0
2019-01-26T04:55:17.382Z,0
2019-01-26T04:56:17.645Z,0
2019-01-26T04:57:17.595Z,0
2019-01-26T04:58:17.564Z,0
2019-01-26T04:59:17.545Z,0
2019-01-26T05:00:17.531Z,0
2019-01-26T05:01:17.508Z,0
2019-01-26T05:02:17.495Z,0
2019-01-26T05:03:17.498Z,0
2019-01-26T05:04:17.460Z,0
2019-01-26T05:05:17.439Z,0
2019-01-26T05:06:17.426Z,0
2019-01-26T05:07:17.408Z,0
2019-01-26T05:08:17.386Z,0
2019-01-26T05:09:17.377Z,0
2019-01-26T05:10:17.374Z,0
2019-01-26T05:11:17.345Z,0
2019-01-26T05:12:17.335Z,0
2019-01-26T05:13:17.312Z,0
2019-01-26T05:14:17.285Z,0
2019-01-26T05:15:17.271Z,0
2019-01-26T05:16:17.258Z,0
2019-01-26T05:17:17.239Z,0
2019-01-26T05:18:17.222Z,0
2019-01-26T05:19:17.241Z,0
2019-01-26T05:20:17.198Z,0
2019-01-26T05:21:17.192Z,0
2019-01-26T05:22:17.152Z,0
2019-01-26T05:23:17.456Z,0
2019-01-26T05:24:17.129Z,0
2019-01-26T05:25:17.120Z,0
2019-01-26T05:26:17.088Z,0
2019-01-26T05:27:17.077Z,0
2019-01-26T05:28:17.055Z,0
2019-01-26T05:29:17.049Z,0
2019-01-26T05:30:17.024Z,0
2019-01-26T05:31:17.015Z,0
2019-01-26T05:32:16.991Z,0
2019-01-26T05:33:17.000Z,0
2019-01-26T05:34:16.959Z,0
2019-01-26T05:35:16.979Z,0
2019-01-26T05:36:16.921Z,0
2019-01-26T05:37:16.911Z,0
2019-01-26T05:38:16.898Z,0
2019-01-26T05:39:16.874Z,0
2019-01-26T05:40:16.874Z,0
2019-01-26T05:41:16.845Z,0
2019-01-26T05:42:16.837Z,0
2019-01-26T05:43:16.806Z,0
2019-01-26T05:44:16.790Z,0
2019-01-26T05:45:16.778Z,0
2019-01-26T05:46:16.763Z,0
2019-01-26T05:47:16.738Z,0
2019-01-26T05:48:16.754Z,0
2019-01-26T05:49:16.748Z,0
2019-01-26T05:50:16.700Z,0
2019-01-26T05:51:16.672Z,0
2019-01-26T05:52:16.659Z,0
2019-01-26T05:53:16.675Z,0
2019-01-26T05:54:16.626Z,0
2019-01-26T05:55:16.689Z,0
2019-01-26T05:56:16.623Z,0
2019-01-26T05:57:16.577Z,0
2019-01-26T05:58:16.563Z,0
2019-01-26T05:59:16.541Z,0
2019-01-26T06:00:16.531Z,0
2019-01-26T06:01:16.527Z,0
2019-01-26T06:02:16.495Z,0
2019-01-26T06:03:16.490Z,0
2019-01-26T06:04:16.464Z,0
2019-01-26T06:05:16.452Z,0
2019-01-26T06:06:16.450Z,0
2019-01-26T06:07:16.420Z,0
2019-01-26T06:08:16.424Z,0
2019-01-26T06:09:16.386Z,0
2019-01-26T06:10:16.361Z,0
2019-01-26T06:11:16.354Z,0
2019-01-26T06:12:16.344Z,0
2019-01-26T06:13:16.337Z,0
2019-01-26T06:14:16.312Z,0
2019-01-26T06:15:16.314Z,0
2019-01-26T06:16:16.282Z,0
2019-01-26T06:17:16.249Z,0
2019-01-26T06:18:17.037Z,0
2019-01-26T06:19:16.218Z,0
2019-01-26T06:20:16.204Z,0
2019-01-26T06:21:16.188Z,0
2019-01-26T06:22:16.169Z,0
2019-01-26T06:23:16.152Z,0
2019-01-26T06:24:16.137Z,0
2019-01-26T06:25:16.157Z,0
2019-01-26T06:26:16.104Z,0
2019-01-26T06:27:16.094Z,0
2019-01-26T06:28:16.077Z,0
2019-01-26T06:29:16.057Z,0
2019-01-26T06:30:16.040Z,0
2019-01-26T06:31:16.027Z,0
2019-01-26T06:32:16.505Z,0
2019-01-26T06:33:15.993Z,0
2019-01-26T06:34:15.978Z,0
2019-01-26T06:35:15.722Z,0
2019-01-26T06:36:15.944Z,0
2019-01-26T06:37:15.936Z,0
2019-01-26T06:38:15.914Z,0
2019-01-26T06:39:15.901Z,0
2019-01-26T06:40:15.883Z,0
2019-01-26T06:41:15.866Z,0
2019-01-26T06:42:15.611Z,0
2019-01-26T06:43:15.836Z,0
2019-01-26T06:44:15.817Z,0
2019-01-26T06:45:15.817Z,0
2019-01-26T06:46:15.786Z,0
2019-01-26T06:47:15.772Z,0
2019-01-26T06:48:15.759Z,0
2019-01-26T06:49:15.741Z,0
2019-01-26T06:50:15.723Z,0
2019-01-26T06:51:15.714Z,0
2019-01-26T06:52:15.695Z,0
2019-01-26T06:53:15.685Z,0
2019-01-26T06:54:15.671Z,0
2019-01-26T06:55:15.647Z,0
2019-01-26T06:56:15.631Z,0
2019-01-26T06:57:15.612Z,0
2019-01-26T06:58:15.601Z,0
2019-01-26T06:59:15.623Z,0
2019-01-26T07:00:15.577Z,0
2019-01-26T07:01:15.565Z,0
2019-01-26T07:02:15.537Z,0
2019-01-26T07:03:15.523Z,5
2019-01-26T07:04:15.522Z,5
2019-01-26T07:05:15.496Z,5
2019-01-26T07:06:15.477Z,5
2019-01-26T07:07:15.459Z,5
2019-01-26T07:08:15.442Z,5
2019-01-26T07:09:15.426Z,5
2019-01-26T07:10:15.418Z,5
2019-01-26T07:11:15.420Z,5
2019-01-26T07:12:15.380Z,10
2019-01-26T07:13:15.369Z,10
2019-01-26T07:14:15.352Z,10
2019-01-26T07:15:15.335Z,5
2019-01-26T07:16:15.324Z,10
2019-01-26T07:17:15.331Z,10
2019-01-26T07:18:19.062Z,10
2019-01-26T07:19:15.275Z,10
2019-01-26T07:20:15.266Z,10
2019-01-26T07:21:15.245Z,10
2019-01-26T07:22:15.228Z,10
2019-01-26T07:23:15.209Z,10
2019-01-26T07:24:15.236Z,10
2019-01-26T07:25:15.707Z,10
2019-01-26T07:26:15.171Z,10
2019-01-26T07:27:15.150Z,10
2019-01-26T07:28:15.145Z,10
2019-01-26T07:29:15.118Z,10
2019-01-26T07:30:15.106Z,10
2019-01-26T07:31:16.130Z,10
2019-01-26T07:32:15.073Z,10
2019-01-26T07:33:15.072Z,10
2019-01-26T07:34:15.050Z,10
2019-01-26T07:35:15.025Z,10
2019-01-26T07:36:15.017Z,10
2019-01-26T07:37:14.996Z,10
2019-01-26T07:38:20.801Z,15
2019-01-26T07:39:14.968Z,15
2019-01-26T07:40:14.951Z,15
2019-01-26T07:41:14.934Z,15
2019-01-26T07:42:14.922Z,15
2019-01-26T07:43:15.078Z,15
2019-01-26T07:44:14.653Z,15
2019-01-26T07:45:14.872Z,15
2019-01-26T07:46:14.862Z,15
2019-01-26T07:47:14.849Z,15
2019-01-26T07:48:21.453Z,15
2019-01-26T07:49:14.815Z,15
2019-01-26T07:50:14.806Z,15
2019-01-26T07:51:14.784Z,20
2019-01-26T07:52:14.814Z,20
2019-01-26T07:53:14.758Z,20
2019-01-26T07:54:14.739Z,25
2019-01-26T07:55:14.729Z,25
2019-01-26T07:56:14.703Z,20
2019-01-26T07:57:14.689Z,20
2019-01-26T07:58:14.727Z,25
2019-01-26T07:59:14.669Z,25
2019-01-26T08:00:14.647Z,25
2019-01-26T08:01:14.636Z,25
2019-01-26T08:02:14.620Z,25
2019-01-26T08:03:14.599Z,25
2019-01-26T08:04:14.599Z,30
2019-01-26T08:05:14.335Z,30
2019-01-26T08:06:14.560Z,35
2019-01-26T08:07:14.544Z,35
2019-01-26T08:08:14.533Z,40
2019-01-26T08:09:14.533Z,35
2019-01-26T08:10:14.498Z,35
2019-01-26T08:11:14.482Z,35
2019-01-26T08:12:14.474Z,35
2019-01-26T08:13:14.469Z,35
2019-01-26T08:14:14.441Z,35
2019-01-26T08:15:14.427Z,35
2019-01-26T08:16:14.408Z,35
2019-01-26T08:17:14.391Z,35
2019-01-26T08:18:14.381Z,35
2019-01-26T08:19:14.371Z,35
2019-01-26T08:20:14.363Z,35
2019-01-26T08:21:14.346Z,35
2019-01-26T08:22:14.085Z,35
2019-01-26T08:23:14.324Z,40
2019-01-26T08:24:14.294Z,40
2019-01-26T08:25:14.287Z,40
2019-01-26T08:26:14.264Z,40
2019-01-26T08:27:14.252Z,45
2019-01-26T08:28:14.242Z,45
2019-01-26T08:29:14.222Z,50
2019-01-26T08:30:14.201Z,55
2019-01-26T08:31:14.206Z,60
2019-01-26T08:32:14.175Z,60
2019-01-26T08:33:14.161Z,65
2019-01-26T08:34:14.146Z,65
2019-01-26T08:35:14.128Z,60
2019-01-26T08:36:14.117Z,60
2019-01-26T08:37:14.101Z,55
2019-01-26T08:38:14.086Z,55
2019-01-26T08:39:14.142Z,55
2019-01-26T08:40:14.059Z,55
2019-01-26T08:41:14.049Z,55
2019-01-26T08:42:14.030Z,60
2019-01-26T08:43:14.010Z,60
2019-01-26T08:44:13.772Z,60
2019-01-26T08:45:13.985Z,60
2019-01-26T08:46:13.970Z,60
2019-01-26T08:47:13.957Z,55
2019-01-26T08:48:13.943Z,55
2019-01-26T08:49:13.940Z,55
2019-01-26T08:50:13.921Z,55
2019-01-26T08:51:13.902Z,55
2019-01-26T08:52:13.642Z,55
2019-01-26T08:53:13.871Z,55
2019-01-26T08:54:13.856Z,60
2019-01-26T08:55:20.453Z,65
2019-01-26T08:56:13.833Z,65
2019-01-26T08:57:13.574Z,65
2019-01-26T08:58:13.799Z,65
2019-01-26T08:59:13.787Z,65
2019-01-26T09:00:13.768Z,60
2019-01-26T09:01:13.759Z,55
2019-01-26T09:02:13.741Z,50
2019-01-26T09:03:13.737Z,50
2019-01-26T09:04:13.826Z,55
2019-01-26T09:05:13.822Z,55
2019-01-26T09:06:13.688Z,55
2019-01-26T09:07:13.673Z,60
2019-01-26T09:08:13.661Z,60
2019-01-26T09:09:13.646Z,65
2019-01-26T09:10:13.637Z,70
2019-01-26T09:11:13.621Z,70
2019-01-26T09:12:13.364Z,70
2019-01-26T09:13:13.592Z,70
2019-01-26T09:14:13.574Z,70
2019-01-26T09:15:13.573Z,70
2019-01-26T09:16:13.550Z,70
2019-01-26T09:17:13.545Z,70
2019-01-26T09:18:13.520Z,70
2019-01-26T09:19:13.518Z,70
2019-01-26T09:20:14.183Z,70
2019-01-26T09:21:13.476Z,70
2019-01-26T09:22:13.464Z,70
2019-01-26T09:23:13.450Z,65
2019-01-26T09:24:13.437Z,65
2019-01-26T09:25:13.420Z,65
2019-01-26T09:26:13.407Z,65
2019-01-26T09:27:13.396Z,65
2019-01-26T09:28:13.378Z,60
2019-01-26T09:29:13.366Z,60
2019-01-26T09:30:13.348Z,60
2019-01-26T09:31:13.336Z,60
2019-01-26T09:32:13.343Z,60
2019-01-26T09:33:13.311Z,55
2019-01-26T09:34:13.297Z,60
2019-01-26T09:35:13.311Z,55
2019-01-26T09:36:13.269Z,55
2019-01-26T09:37:13.251Z,55
2019-01-26T09:38:13.242Z,55
2019-01-26T09:39:13.233Z,55
2019-01-26T09:40:13.259Z,50
2019-01-26T09:41:13.197Z,50
2019-01-26T09:42:13.189Z,50
2019-01-26T09:43:13.167Z,50
2019-01-26T09:44:13.154Z,50
2019-01-26T09:45:13.142Z,50
2019-01-26T09:46:13.175Z,50
2019-01-26T09:47:13.140Z,50
2019-01-26T09:48:13.104Z,55
2019-01-26T09:49:13.084Z,55
2019-01-26T09:50:13.077Z,55
2019-01-26T09:51:13.089Z,55
2019-01-26T09:52:13.049Z,55
2019-01-26T09:53:13.043Z,55
2019-01-26T09:54:13.023Z,55
2019-01-26T09:55:13.006Z,55
2019-01-26T09:56:12.993Z,55
2019-01-26T09:57:12.982Z,55
2019-01-26T09:58:12.963Z,55
2019-01-26T09:59:13.687Z,55
2019-01-26T10:00:12.953Z,55
2019-01-26T10:01:12.923Z,55
2019-01-26T10:02:12.914Z,55
2019-01-26T10:03:12.902Z,55
2019-01-26T10:04:12.883Z,50
2019-01-26T10:05:12.871Z,55
2019-01-26T10:06:12.853Z,55
2019-01-26T10:07:12.852Z,55
2019-01-26T10:08:12.827Z,55
2019-01-26T10:09:12.572Z,60
2019-01-26T10:10:12.812Z,60
2019-01-26T10:11:12.794Z,65
2019-01-26T10:12:12.789Z,65
2019-01-26T10:13:12.763Z,70
2019-01-26T10:14:12.750Z,70
2019-01-26T10:15:12.740Z,70
2019-01-26T10:16:12.721Z,70
2019-01-26T10:17:12.707Z,75
2019-01-26T10:18:12.701Z,70
2019-01-26T10:19:12.683Z,75
2019-01-26T10:20:12.660Z,80
2019-01-26T10:21:12.651Z,80
2019-01-26T10:22:12.635Z,85
2019-01-26T10:23:12.618Z,85
2019-01-26T10:24:12.615Z,85
2019-01-26T10:25:12.596Z,90
2019-01-26T10:26:12.580Z,90
2019-01-26T10:27:12.564Z,90
2019-01-26T10:28:12.549Z,90
2019-01-26T10:29:12.536Z,90
2019-01-26T10:30:12.522Z,85
2019-01-26T10:31:12.518Z,80
2019-01-26T10:32:12.500Z,80
2019-01-26T10:33:12.497Z,80
2019-01-26T10:34:12.480Z,80
2019-01-26T10:35:12.465Z,80
2019-01-26T10:36:12.442Z,80
2019-01-26T10:37:12.428Z,80
2019-01-26T10:38:12.418Z,80
2019-01-26T10:39:12.408Z,85
2019-01-26T10:40:12.392Z,80
2019-01-26T10:41:12.385Z,85
2019-01-26T10:42:12.363Z,85
2019-01-26T10:43:12.356Z,85
2019-01-26T10:44:12.338Z,85
2019-01-26T10:45:12.328Z,80
2019-01-26T10:46:12.311Z,75
2019-01-26T10:47:12.292Z,75
2019-01-26T10:48:12.035Z,75
2019-01-26T10:49:12.268Z,75
2019-01-26T10:50:12.258Z,80
2019-01-26T10:51:12.246Z,80
2019-01-26T10:52:12.228Z,80
2019-01-26T10:53:12.216Z,80
2019-01-26T10:54:12.205Z,80
2019-01-26T10:55:12.199Z,80
2019-01-26T10:56:12.174Z,80
2019-01-26T10:57:12.174Z,85
2019-01-26T10:58:12.150Z,90
2019-01-26T10:59:12.132Z,90
2019-01-26T11:00:12.122Z,90
2019-01-26T11:01:12.100Z,90
2019-01-26T11:02:12.095Z,90
2019-01-26T11:03:12.073Z,90
2019-01-26T11:04:12.073Z,100
2019-01-26T11:05:12.063Z,105
2019-01-26T11:06:12.031Z,105
2019-01-26T11:07:12.024Z,110
2019-01-26T11:08:12.013Z,115
2019-01-26T11:09:11.994Z,125
2019-01-26T11:10:11.983Z,130
2019-01-26T11:11:11.969Z,125
2019-01-26T11:12:11.959Z,120
2019-01-26T11:13:11.945Z,115
2019-01-26T11:14:11.927Z,115
2019-01-26T11:15:11.918Z,110
2019-01-26T11:16:11.904Z,100
2019-01-26T11:17:11.891Z,105
2019-01-26T11:18:11.875Z,100
2019-01-26T11:19:17.397Z,100
2019-01-26T11:20:11.851Z,95
2019-01-26T11:21:11.835Z,100
2019-01-26T11:22:11.818Z,95
2019-01-26T11:23:11.807Z,90
2019-01-26T11:24:11.810Z,80
2019-01-26T11:25:11.782Z,80
2019-01-26T11:26:11.773Z,85
2019-01-26T11:27:11.765Z,85
2019-01-26T11:28:11.747Z,90
2019-01-26T11:29:11.733Z,95
2019-01-26T11:30:11.724Z,100
2019-01-26T11:31:11.721Z,100
2019-01-26T11:32:11.696Z,110
2019-01-26T11:33:11.689Z,120
2019-01-26T11:34:11.670Z,120
2019-01-26T11:35:11.662Z,120
2019-01-26T11:36:11.642Z,120
2019-01-26T11:37:11.383Z,125
2019-01-26T11:38:11.618Z,125
2019-01-26T11:39:11.833Z,125
2019-01-26T11:40:11.593Z,125
2019-01-26T11:41:11.574Z,125
2019-01-26T11:42:11.564Z,130
2019-01-26T11:43:11.549Z,130
2019-01-26T11:44:11.538Z,130
2019-01-26T11:45:11.545Z,125
2019-01-26T11:46:11.519Z,120
2019-01-26T11:47:11.497Z,125
2019-01-26T11:48:11.485Z,120
2019-01-26T11:49:17.578Z,125
2019-01-26T11:50:11.460Z,130
2019-01-26T11:51:11.445Z,130
2019-01-26T11:52:11.436Z,130
2019-01-26T11:53:11.422Z,125
2019-01-26T11:54:11.435Z,125
2019-01-26T11:55:11.405Z,130
2019-01-26T11:56:11.403Z,130
2019-01-26T11:57:11.368Z,130
2019-01-26T11:58:11.355Z,135
2019-01-26T11:59:11.106Z,135
2019-01-26T12:00:11.346Z,140
2019-01-26T12:01:11.316Z,145
2019-01-26T12:02:11.306Z,160
2019-01-26T12:03:13.028Z,170
2019-01-26T12:04:11.289Z,180
2019-01-26T12:05:11.269Z,180
2019-01-26T12:06:11.260Z,175
2019-01-26T12:07:11.251Z,165
2019-01-26T12:08:11.233Z,160
2019-01-26T12:09:11.217Z,160
2019-01-26T12:10:11.227Z,160
2019-01-26T12:11:11.233Z,160
2019-01-26T12:12:11.179Z,160
2019-01-26T12:13:11.168Z,165
2019-01-26T12:14:11.155Z,155
2019-01-26T12:15:11.144Z,145
2019-01-26T12:16:11.134Z,130
2019-01-26T12:17:11.118Z,125
2019-01-26T12:18:11.104Z,115
2019-01-26T12:19:11.088Z,115
2019-01-26T12:20:10.844Z,120
2019-01-26T12:21:11.072Z,115
2019-01-26T12:22:11.049Z,130
2019-01-26T12:23:11.039Z,130
2019-01-26T12:24:11.925Z,135
2019-01-26T12:25:11.020Z,140
2019-01-26T12:26:11.008Z,150
2019-01-26T12:27:10.992Z,150
2019-01-26T12:28:10.981Z,145
2019-01-26T12:29:10.978Z,150
2019-01-26T12:30:10.712Z,145
2019-01-26T12:31:10.958Z,145
2019-01-26T12:32:10.930Z,145
2019-01-26T12:33:10.922Z,140
2019-01-26T12:34:10.910Z,150
2019-01-26T12:35:10.894Z,145
2019-01-26T12:36:10.879Z,140
2019-01-26T12:37:10.874Z,135
2019-01-26T12:38:10.865Z,130
2019-01-26T12:39:10.843Z,130
2019-01-26T12:40:10.844Z,125
2019-01-26T12:41:10.576Z,120
2019-01-26T12:42:10.820Z,120
2019-01-26T12:43:10.795Z,125
2019-01-26T12:44:10.786Z,120
2019-01-26T12:45:11.054Z,130
2019-01-26T12:46:10.818Z,130
2019-01-26T12:47:16.905Z,130
2019-01-26T12:48:10.735Z,135
2019-01-26T12:49:10.729Z,140
2019-01-26T12:50:11.790Z,140
2019-01-26T12:51:10.694Z,130
2019-01-26T12:52:10.440Z,130
2019-01-26T12:53:10.677Z,135
2019-01-26T12:54:10.426Z,140
2019-01-26T12:55:10.649Z,150
2019-01-26T12:56:10.399Z,155
2019-01-26T12:57:10.669Z,160
2019-01-26T12:58:10.613Z,170
2019-01-26T12:59:10.612Z,165
2019-01-26T13:00:10.702Z,175
2019-01-26T13:01:10.568Z,175
2019-01-26T13:02:10.557Z,165
2019-01-26T13:03:10.552Z,160
2019-01-26T13:04:10.540Z,150
2019-01-26T13:05:10.548Z,145
2019-01-26T13:06:10.518Z,135
2019-01-26T13:07:10.508Z,135
2019-01-26T13:08:10.494Z,130
2019-01-26T13:09:10.479Z,125
2019-01-26T13:10:10.469Z,120
2019-01-26T13:11:10.456Z,125
2019-01-26T13:12:10.436Z,130
2019-01-26T13:13:10.430Z,130
2019-01-26T13:14:10.417Z,140
2019-01-26T13:15:17.540Z,145
2019-01-26T13:16:10.385Z,160
2019-01-26T13:17:10.387Z,160
2019-01-26T13:18:10.406Z,160
2019-01-26T13:19:10.348Z,160
2019-01-26T13:20:10.344Z,155
2019-01-26T13:21:10.329Z,155
2019-01-26T13:22:10.313Z,150
2019-01-26T13:23:10.314Z,145
2019-01-26T13:24:10.978Z,140
2019-01-26T13:25:10.277Z,135
2019-01-26T13:26:10.262Z,135
2019-01-26T13:27:10.255Z,135
2019-01-26T13:28:10.244Z,145
2019-01-26T13:29:10.229Z,145
2019-01-26T13:30:10.221Z,150
2019-01-26T13:31:10.198Z,145
2019-01-26T13:32:10.184Z,145
2019-01-26T13:33:10.183Z,135
2019-01-26T13:34:10.169Z,130
2019-01-26T13:35:09.909Z,130
2019-01-26T13:36:10.134Z,125
2019-01-26T13:37:10.127Z,120
2019-01-26T13:38:10.109Z,125
2019-01-26T13:39:10.099Z,120
2019-01-26T13:40:10.394Z,120
2019-01-26T13:41:10.076Z,120
2019-01-26T13:42:10.339Z,115
2019-01-26T13:43:10.049Z,110
2019-01-26T13:44:10.044Z,110
2019-01-26T13:45:09.794Z,105
2019-01-26T13:46:10.357Z,100
2019-01-26T13:47:10.001Z,90
2019-01-26T13:48:09.988Z,85
2019-01-26T13:49:09.981Z,85
2019-01-26T13:50:09.962Z,85
2019-01-26T13:51:15.436Z,85
2019-01-26T13:52:09.938Z,85
2019-01-26T13:53:09.967Z,85
2019-01-26T13:54:09.911Z,85
2019-01-26T13:55:09.907Z,85
2019-01-26T13:56:09.884Z,90
2019-01-26T13:57:10.174Z,85
2019-01-26T13:58:09.859Z,85
2019-01-26T13:59:09.854Z,90
2019-01-26T14:00:09.641Z,90
2019-01-26T14:01:09.824Z,95
2019-01-26T14:02:09.570Z,100
2019-01-26T14:03:09.799Z,100
2019-01-26T14:04:09.784Z,105
2019-01-26T14:05:09.769Z,100
2019-01-26T14:06:09.763Z,110
2019-01-26T14:07:09.750Z,115
2019-01-26T14:08:09.491Z,115
2019-01-26T14:09:09.718Z,120
2019-01-26T14:10:09.705Z,125
2019-01-26T14:11:09.695Z,135
2019-01-26T14:12:09.683Z,135
2019-01-26T14:13:09.670Z,130
2019-01-26T14:14:09.654Z,125
2019-01-26T14:15:09.693Z,125
2019-01-26T14:16:09.628Z,120
2019-01-26T14:17:09.615Z,115
2019-01-26T14:18:09.374Z,110
2019-01-26T14:19:09.605Z,105
2019-01-26T14:20:09.620Z,105
2019-01-26T14:21:09.567Z,105
2019-01-26T14:22:09.560Z,100
2019-01-26T14:23:09.544Z,95
2019-01-26T14:24:09.532Z,85